sensor_id;sensor_type;location;lat;lon;timestamp;pressure;altitude;pressure_sealevel;temperature;humidity
10476;BME280;26166;48.264;11.436;2022-10-26T00:01:26;96300.03;;;20.30;59.54
10476;BME280;26166;48.264;11.436;2022-10-26T00:04:27;96308.03;;;20.30;59.63
10476;BME280;26166;48.264;11.436;2022-10-26T00:07:30;96312.56;;;20.29;59.47
10476;BME280;26166;48.264;11.436;2022-10-26T00:10:30;96314.19;;;20.30;59.40
10476;BME280;26166;48.264;11.436;2022-10-26T00:13:32;96313.38;;;20.30;59.48
10476;BME280;26166;48.264;11.436;2022-10-26T00:16:33;96312.56;;;20.29;59.56
10476;BME280;26166;48.264;11.436;2022-10-26T00:19:33;96303.75;;;20.29;59.60
10476;BME280;26166;48.264;11.436;2022-10-26T00:22:34;96296.56;;;20.29;59.45
10476;BME280;26166;48.264;11.436;2022-10-26T00:25:34;96289.59;;;20.28;59.53
10476;BME280;26166;48.264;11.436;2022-10-26T00:28:34;96291.22;;;20.29;59.52
10476;BME280;26166;48.264;11.436;2022-10-26T00:31:35;96294.94;;;20.28;59.35
10476;BME280;26166;48.264;11.436;2022-10-26T00:34:35;96293.91;;;20.29;59.41
10476;BME280;26166;48.264;11.436;2022-10-26T00:37:35;96292.84;;;20.30;59.62
10476;BME280;26166;48.264;11.436;2022-10-26T00:40:35;96286.69;;;20.30;59.40
10476;BME280;26166;48.264;11.436;2022-10-26T00:43:36;96269.88;;;20.29;59.44
10476;BME280;26166;48.264;11.436;2022-10-26T00:46:37;96269.06;;;20.29;59.65
10476;BME280;26166;48.264;11.436;2022-10-26T00:49:38;96260.25;;;20.28;59.62
10476;BME280;26166;48.264;11.436;2022-10-26T00:52:38;96268.28;;;20.28;59.35
10476;BME280;26166;48.264;11.436;2022-10-26T00:55:44;96270.34;;;20.26;59.58
10476;BME280;26166;48.264;11.436;2022-10-26T00:58:44;96281.00;;;20.26;59.38
10476;BME280;26166;48.264;11.436;2022-10-26T01:01:45;96287.97;;;20.27;59.51
10476;BME280;26166;48.264;11.436;2022-10-26T01:04:46;96287.97;;;20.27;59.47
10476;BME280;26166;48.264;11.436;2022-10-26T01:07:47;96287.97;;;20.27;59.55
10476;BME280;26166;48.264;11.436;2022-10-26T01:10:47;96279.94;;;20.27;59.44
10476;BME280;26166;48.264;11.436;2022-10-26T01:13:49;96287.97;;;20.27;59.57
10476;BME280;26166;48.264;11.436;2022-10-26T01:39:26;96281.81;;;20.27;59.41
10476;BME280;26166;48.264;11.436;2022-10-26T01:42:28;96281.00;;;20.26;59.49
10476;BME280;26166;48.264;11.436;2022-10-26T01:45:29;96291.66;;;20.26;59.45
10476;BME280;26166;48.264;11.436;2022-10-26T01:48:31;96282.84;;;20.26;59.52
10476;BME280;26166;48.264;11.436;2022-10-26T01:51:32;96289.25;;;20.25;59.58
10476;BME280;26166;48.264;11.436;2022-10-26T01:54:34;96295.38;;;20.25;59.32
10476;BME280;26166;48.264;11.436;2022-10-26T01:57:34;96293.75;;;20.24;59.38
10476;BME280;26166;48.264;11.436;2022-10-26T02:00:35;96310.56;;;20.25;59.33
10476;BME280;26166;48.264;11.436;2022-10-26T02:03:45;96299.91;;;20.25;59.34
10476;BME280;26166;48.264;11.436;2022-10-26T02:07:02;96291.91;;;20.25;59.55
10476;BME280;26166;48.264;11.436;2022-10-26T02:10:09;96283.09;;;20.24;59.52
10476;BME280;26166;48.264;11.436;2022-10-26T02:13:32;96295.38;;;20.25;59.37
10476;BME280;26166;48.264;11.436;2022-10-26T02:16:41;96299.91;;;20.25;59.41
10476;BME280;26166;48.264;11.436;2022-10-26T02:19:48;96295.38;;;20.25;59.46
10476;BME280;26166;48.264;11.436;2022-10-26T02:22:51;96291.66;;;20.26;59.30
10476;BME280;26166;48.264;11.436;2022-10-26T02:25:55;96284.72;;;20.25;59.32
10476;BME280;26166;48.264;11.436;2022-10-26T02:28:57;96305.25;;;20.25;59.34
10476;BME280;26166;48.264;11.436;2022-10-26T02:31:59;96300.72;;;20.25;59.52
10476;BME280;26166;48.264;11.436;2022-10-26T02:35:01;96289.25;;;20.25;59.32
10476;BME280;26166;48.264;11.436;2022-10-26T02:38:01;96303.38;;;20.25;59.31
10476;BME280;26166;48.264;11.436;2022-10-26T02:41:03;96291.91;;;20.25;59.28
10476;BME280;26166;48.264;11.436;2022-10-26T02:47:19;96291.66;;;20.26;59.30
10476;BME280;26166;48.264;11.436;2022-10-26T02:50:20;96290.63;;;20.27;59.12
10476;BME280;26166;48.264;11.436;2022-10-26T02:53:44;96282.63;;;20.27;59.14
10476;BME280;26166;48.264;11.436;2022-10-26T03:00:05;96274.41;;;20.29;59.01
10476;BME280;26166;48.264;11.436;2022-10-26T03:03:06;96262.94;;;20.28;59.13
10476;BME280;26166;48.264;11.436;2022-10-26T03:06:06;96241.59;;;20.28;59.28
10476;BME280;26166;48.264;11.436;2022-10-26T03:09:06;96247.50;;;20.30;59.20
10476;BME280;26166;48.264;11.436;2022-10-26T03:12:06;96250.16;;;20.30;59.25
10476;BME280;26166;48.264;11.436;2022-10-26T03:15:07;96246.44;;;20.31;59.21
10476;BME280;26166;48.264;11.436;2022-10-26T03:18:07;96252.84;;;20.30;59.20
10476;BME280;26166;48.264;11.436;2022-10-26T03:21:07;96259.78;;;20.31;59.02
10476;BME280;26166;48.264;11.436;2022-10-26T03:24:08;96257.13;;;20.31;59.00
10476;BME280;26166;48.264;11.436;2022-10-26T03:27:08;96251.78;;;20.31;59.13
10476;BME280;26166;48.264;11.436;2022-10-26T03:30:09;96246.44;;;20.31;59.22
10476;BME280;26166;48.264;11.436;2022-10-26T03:33:09;96248.31;;;20.31;59.01
10476;BME280;26166;48.264;11.436;2022-10-26T03:36:10;96249.34;;;20.30;58.95
10476;BME280;26166;48.264;11.436;2022-10-26T03:39:10;96247.50;;;20.30;59.21
10476;BME280;26166;48.264;11.436;2022-10-26T03:42:10;96250.97;;;20.31;58.89
10476;BME280;26166;48.264;11.436;2022-10-26T03:45:10;96245.88;;;20.29;59.04
10476;BME280;26166;48.264;11.436;2022-10-26T03:48:11;96259.22;;;20.29;58.94
10476;BME280;26166;48.264;11.436;2022-10-26T03:51:11;96258.41;;;20.29;58.96
10476;BME280;26166;48.264;11.436;2022-10-26T03:54:11;96260.03;;;20.30;59.23
10476;BME280;26166;48.264;11.436;2022-10-26T03:57:11;96260.84;;;20.30;59.13
10476;BME280;26166;48.264;11.436;2022-10-26T04:00:12;96255.50;;;20.30;59.17
10476;BME280;26166;48.264;11.436;2022-10-26T04:03:14;96262.47;;;20.31;59.02
10476;BME280;26166;48.264;11.436;2022-10-26T04:06:14;96275.78;;;20.31;59.09
10476;BME280;26166;48.264;11.436;2022-10-26T04:09:14;96284.59;;;20.32;59.18
10476;BME280;26166;48.264;11.436;2022-10-26T04:12:14;96281.13;;;20.31;59.16
10476;BME280;26166;48.264;11.436;2022-10-26T04:15:15;96281.13;;;20.31;59.02
10476;BME280;26166;48.264;11.436;2022-10-26T04:18:15;96289.94;;;20.32;58.94
10476;BME280;26166;48.264;11.436;2022-10-26T04:21:16;96301.66;;;20.31;59.13
10476;BME280;26166;48.264;11.436;2022-10-26T04:24:16;96309.66;;;20.31;58.92
10476;BME280;26166;48.264;11.436;2022-10-26T04:27:16;96305.13;;;20.31;59.02
10476;BME280;26166;48.264;11.436;2022-10-26T04:30:16;96299.81;;;20.31;58.94
10476;BME280;26166;48.264;11.436;2022-10-26T04:33:16;96307.81;;;20.31;58.98
10476;BME280;26166;48.264;11.436;2022-10-26T04:36:16;96303.50;;;20.30;59.01
10476;BME280;26166;48.264;11.436;2022-10-26T04:39:17;96289.38;;;20.30;59.11
10476;BME280;26166;48.264;11.436;2022-10-26T04:42:17;96308.84;;;20.30;59.00
10476;BME280;26166;48.264;11.436;2022-10-26T04:45:17;96310.47;;;20.31;58.98
10476;BME280;26166;48.264;11.436;2022-10-26T04:48:17;96316.03;;;20.30;58.94
10476;BME280;26166;48.264;11.436;2022-10-26T04:51:17;96329.13;;;20.31;59.11
10476;BME280;26166;48.264;11.436;2022-10-26T04:54:18;96338.19;;;20.30;59.14
10476;BME280;26166;48.264;11.436;2022-10-26T04:57:18;96350.47;;;20.31;59.09
10476;BME280;26166;48.264;11.436;2022-10-26T05:00:18;96370.81;;;20.32;59.11
10476;BME280;26166;48.264;11.436;2022-10-26T05:03:18;96406.50;;;20.31;59.19
10476;BME280;26166;48.264;11.436;2022-10-26T05:06:19;96433.16;;;20.31;59.12
10476;BME280;26166;48.264;11.436;2022-10-26T05:09:19;96417.16;;;20.31;59.03
10476;BME280;26166;48.264;11.436;2022-10-26T05:12:19;96406.50;;;20.31;59.22
10476;BME280;26166;48.264;11.436;2022-10-26T05:15:20;96411.03;;;20.31;59.14
10476;BME280;26166;48.264;11.436;2022-10-26T05:18:20;96419.84;;;20.31;59.26
10476;BME280;26166;48.264;11.436;2022-10-26T05:21:21;96420.88;;;20.30;59.25
10476;BME280;26166;48.264;11.436;2022-10-26T05:24:21;96426.22;;;20.30;59.27
10476;BME280;26166;48.264;11.436;2022-10-26T05:27:21;96425.41;;;20.30;59.22
10476;BME280;26166;48.264;11.436;2022-10-26T05:30:23;96419.25;;;20.29;59.21
10476;BME280;26166;48.264;11.436;2022-10-26T05:33:24;96415.53;;;20.30;59.08
10476;BME280;26166;48.264;11.436;2022-10-26T05:36:24;96428.06;;;20.30;59.22
10476;BME280;26166;48.264;11.436;2022-10-26T05:39:24;96431.56;;;20.30;59.00
10476;BME280;26166;48.264;11.436;2022-10-26T05:42:24;96431.56;;;20.30;58.89
10476;BME280;26166;48.264;11.436;2022-10-26T05:45:24;96438.50;;;20.31;59.04
10476;BME280;26166;48.264;11.436;2022-10-26T05:48:24;96440.16;;;20.32;59.08
10476;BME280;26166;48.264;11.436;2022-10-26T05:51:25;96435.63;;;20.33;59.05
10476;BME280;26166;48.264;11.436;2022-10-26T05:54:25;96444.66;;;20.32;59.21
10476;BME280;26166;48.264;11.436;2022-10-26T05:57:25;96446.31;;;20.33;59.18
10476;BME280;26166;48.264;11.436;2022-10-26T06:00:26;96445.50;;;20.32;59.13
10476;BME280;26166;48.264;11.436;2022-10-26T06:03:33;96433.97;;;20.32;58.99
10476;BME280;26166;48.264;11.436;2022-10-26T06:06:44;96437.50;;;20.32;59.25
10476;BME280;26166;48.264;11.436;2022-10-26T06:09:45;96444.66;;;20.32;59.07
10476;BME280;26166;48.264;11.436;2022-10-26T06:12:45;96439.31;;;20.32;59.18
10476;BME280;26166;48.264;11.436;2022-10-26T06:22:26;96455.31;;;20.32;59.21
10476;BME280;26166;48.264;11.436;2022-10-26T06:31:37;96447.56;;;20.30;59.14
10476;BME280;26166;48.264;11.436;2022-10-26T06:34:38;96444.88;;;20.30;59.08
10476;BME280;26166;48.264;11.436;2022-10-26T06:37:43;96448.38;;;20.31;59.09
10476;BME280;26166;48.264;11.436;2022-10-26T06:40:44;96449.19;;;20.31;59.29
10476;BME280;26166;48.264;11.436;2022-10-26T06:43:45;96443.84;;;20.31;59.20
10476;BME280;26166;48.264;11.436;2022-10-26T06:53:04;96438.50;;;20.31;59.25
10476;BME280;26166;48.264;11.436;2022-10-26T06:56:05;96435.84;;;20.31;59.32
10476;BME280;26166;48.264;11.436;2022-10-26T06:59:07;96438.50;;;20.31;59.14
10476;BME280;26166;48.264;11.436;2022-10-26T07:02:08;96460.66;;;20.32;59.34
10476;BME280;26166;48.264;11.436;2022-10-26T07:05:08;96449.19;;;20.31;59.12
10476;BME280;26166;48.264;11.436;2022-10-26T07:08:11;96466.00;;;20.32;59.36
10476;BME280;26166;48.264;11.436;2022-10-26T07:11:12;96455.31;;;20.32;59.11
10476;BME280;26166;48.264;11.436;2022-10-26T07:14:12;96449.19;;;20.31;59.17
10476;BME280;26166;48.264;11.436;2022-10-26T07:17:12;96450.00;;;20.32;59.13
10476;BME280;26166;48.264;11.436;2022-10-26T07:20:13;96454.50;;;20.31;59.08
10476;BME280;26166;48.264;11.436;2022-10-26T07:23:13;96458.22;;;20.30;59.08
10476;BME280;26166;48.264;11.436;2022-10-26T07:26:14;96461.50;;;20.32;59.07
10476;BME280;26166;48.264;11.436;2022-10-26T07:29:15;96458.84;;;20.32;59.04
10476;BME280;26166;48.264;11.436;2022-10-26T07:32:18;96461.50;;;20.32;59.37
10476;BME280;26166;48.264;11.436;2022-10-26T07:35:18;96462.31;;;20.33;59.20
10476;BME280;26166;48.264;11.436;2022-10-26T07:38:18;96464.16;;;20.32;59.24
10476;BME280;26166;48.264;11.436;2022-10-26T07:41:19;96468.47;;;20.33;59.13
10476;BME280;26166;48.264;11.436;2022-10-26T07:44:19;96462.31;;;20.33;59.12
10476;BME280;26166;48.264;11.436;2022-10-26T07:47:19;96457.78;;;20.33;59.46
10476;BME280;26166;48.264;11.436;2022-10-26T07:50:19;96452.44;;;20.33;59.17
10476;BME280;26166;48.264;11.436;2022-10-26T07:53:20;96446.31;;;20.33;59.32
10476;BME280;26166;48.264;11.436;2022-10-26T07:56:20;96446.31;;;20.33;59.39
10476;BME280;26166;48.264;11.436;2022-10-26T07:59:20;96440.16;;;20.32;59.22
10476;BME280;26166;48.264;11.436;2022-10-26T08:02:20;96450.84;;;20.32;59.30
10476;BME280;26166;48.264;11.436;2022-10-26T08:05:20;96465.19;;;20.31;59.25
10476;BME280;26166;48.264;11.436;2022-10-26T08:08:21;96466.22;;;20.30;59.35
10476;BME280;26166;48.264;11.436;2022-10-26T08:11:21;96466.22;;;20.30;59.50
10476;BME280;26166;48.264;11.436;2022-10-26T08:14:21;96464.38;;;20.31;59.60
10476;BME280;26166;48.264;11.436;2022-10-26T08:17:21;96463.56;;;20.30;59.36
10476;BME280;26166;48.264;11.436;2022-10-26T08:20:22;96468.91;;;20.30;59.41
10476;BME280;26166;48.264;11.436;2022-10-26T08:23:22;96467.28;;;20.29;59.58
10476;BME280;26166;48.264;11.436;2022-10-26T08:26:23;96468.31;;;20.28;59.49
10476;BME280;26166;48.264;11.436;2022-10-26T08:29:23;96476.31;;;20.28;59.62
10476;BME280;26166;48.264;11.436;2022-10-26T08:32:23;96476.31;;;20.28;59.73
10476;BME280;26166;48.264;11.436;2022-10-26T08:35:23;96474.66;;;20.27;59.72
10476;BME280;26166;48.264;11.436;2022-10-26T08:38:24;96461.31;;;20.27;60.04
10476;BME280;26166;48.264;11.436;2022-10-26T08:41:34;96474.47;;;20.29;60.11
10476;BME280;26166;48.264;11.436;2022-10-26T08:44:41;96470.97;;;20.28;60.16
10476;BME280;26166;48.264;11.436;2022-10-26T08:47:43;96485.94;;;20.29;59.89
10476;BME280;26166;48.264;11.436;2022-10-26T08:50:51;96481.66;;;20.28;60.01
10476;BME280;26166;48.264;11.436;2022-10-26T08:53:59;96491.28;;;20.29;60.34
10476;BME280;26166;48.264;11.436;2022-10-26T08:56:59;96482.47;;;20.29;60.15
10476;BME280;26166;48.264;11.436;2022-10-26T09:00:06;96489.41;;;20.30;59.96
10476;BME280;26166;48.264;11.436;2022-10-26T09:03:13;96495.56;;;20.30;60.08
10476;BME280;26166;48.264;11.436;2022-10-26T09:06:23;96491.03;;;20.31;59.91
10476;BME280;26166;48.264;11.436;2022-10-26T09:09:47;96488.63;;;20.29;59.86
10476;BME280;26166;48.264;11.436;2022-10-26T09:12:57;96481.66;;;20.28;59.86
10476;BME280;26166;48.264;11.436;2022-10-26T09:22:21;96497.03;;;20.26;60.05
10476;BME280;26166;48.264;11.436;2022-10-26T09:25:25;96486.19;;;20.28;59.97
10476;BME280;26166;48.264;11.436;2022-10-26T09:28:31;96492.53;;;20.27;59.86
10476;BME280;26166;48.264;11.436;2022-10-26T09:31:34;96499.50;;;20.28;59.99
10476;BME280;26166;48.264;11.436;2022-10-26T09:34:51;96506.66;;;20.27;59.85
10476;BME280;26166;48.264;11.436;2022-10-26T09:38:05;96507.72;;;20.26;59.79
10476;BME280;26166;48.264;11.436;2022-10-26T09:41:30;96506.66;;;20.27;59.82
10476;BME280;26166;48.264;11.436;2022-10-26T09:47:38;96524.53;;;20.27;59.93
10476;BME280;26166;48.264;11.436;2022-10-26T09:50:43;96521.88;;;20.27;59.88
10476;BME280;26166;48.264;11.436;2022-10-26T09:53:46;96519.19;;;20.27;59.79
10476;BME280;26166;48.264;11.436;2022-10-26T09:56:48;96521.06;;;20.26;59.87
10476;BME280;26166;48.264;11.436;2022-10-26T09:59:50;96521.88;;;20.27;59.66
10476;BME280;26166;48.264;11.436;2022-10-26T10:02:52;96524.53;;;20.27;59.57
10476;BME280;26166;48.264;11.436;2022-10-26T10:05:53;96528.00;;;20.27;59.89
10476;BME280;26166;48.264;11.436;2022-10-26T10:09:14;96517.34;;;20.27;59.71
10476;BME280;26166;48.264;11.436;2022-10-26T10:12:19;96523.53;;;20.28;59.63
10476;BME280;26166;48.264;11.436;2022-10-26T10:15:20;96531.28;;;20.29;59.68
10476;BME280;26166;48.264;11.436;2022-10-26T10:18:22;96539.06;;;20.31;59.58
10476;BME280;26166;48.264;11.436;2022-10-26T10:24:55;96538.25;;;20.30;59.46
10476;BME280;26166;48.264;11.436;2022-10-26T10:27:56;96538.25;;;20.30;59.49
10476;BME280;26166;48.264;11.436;2022-10-26T10:30:57;96544.41;;;20.31;59.46
10476;BME280;26166;48.264;11.436;2022-10-26T10:34:05;96546.25;;;20.30;59.60
10476;BME280;26166;48.264;11.436;2022-10-26T10:37:25;96548.91;;;20.30;59.64
10476;BME280;26166;48.264;11.436;2022-10-26T10:40:26;96551.59;;;20.30;59.84
10476;BME280;26166;48.264;11.436;2022-10-26T10:43:29;96552.41;;;20.31;59.60
10476;BME280;26166;48.264;11.436;2022-10-26T10:46:30;96541.72;;;20.31;59.77
10476;BME280;26166;48.264;11.436;2022-10-26T10:49:30;96555.88;;;20.31;59.73
10476;BME280;26166;48.264;11.436;2022-10-26T10:52:31;96554.25;;;20.30;59.87
10476;BME280;26166;48.264;11.436;2022-10-26T10:55:31;96556.69;;;20.32;59.71
10476;BME280;26166;48.264;11.436;2022-10-26T10:58:48;96560.41;;;20.31;59.97
10476;BME280;26166;48.264;11.436;2022-10-26T11:01:57;96549.72;;;20.31;59.96
10476;BME280;26166;48.264;11.436;2022-10-26T11:11:08;96551.34;;;20.32;59.70
10476;BME280;26166;48.264;11.436;2022-10-26T11:14:11;96555.06;;;20.31;59.74
10476;BME280;26166;48.264;11.436;2022-10-26T11:20:14;96562.88;;;20.32;59.70
10476;BME280;26166;48.264;11.436;2022-10-26T11:23:37;96561.22;;;20.31;59.74
10476;BME280;26166;48.264;11.436;2022-10-26T11:33:21;96570.03;;;20.32;59.61
10476;BME280;26166;48.264;11.436;2022-10-26T11:36:22;96571.88;;;20.31;59.85
10476;BME280;26166;48.264;11.436;2022-10-26T11:42:45;96578.03;;;20.32;59.86
10476;BME280;26166;48.264;11.436;2022-10-26T11:49:25;96584.41;;;20.31;59.82
10476;BME280;26166;48.264;11.436;2022-10-26T11:52:38;96586.25;;;20.30;59.87
10476;BME280;26166;48.264;11.436;2022-10-26T11:55:39;96592.41;;;20.31;59.88
10476;BME280;26166;48.264;11.436;2022-10-26T11:58:40;96582.56;;;20.31;59.73
10476;BME280;26166;48.264;11.436;2022-10-26T12:01:41;96592.41;;;20.31;59.63
10476;BME280;26166;48.264;11.436;2022-10-26T12:04:42;96594.03;;;20.32;59.63
10476;BME280;26166;48.264;11.436;2022-10-26T12:07:45;96594.88;;;20.32;59.69
10476;BME280;26166;48.264;11.436;2022-10-26T12:10:51;96600.22;;;20.32;59.81
10476;BME280;26166;48.264;11.436;2022-10-26T12:17:19;96605.56;;;20.32;59.74
10476;BME280;26166;48.264;11.436;2022-10-26T12:23:53;96605.56;;;20.32;59.70
10476;BME280;26166;48.264;11.436;2022-10-26T12:33:26;96619.69;;;20.33;59.58
10476;BME280;26166;48.264;11.436;2022-10-26T12:39:46;96618.88;;;20.32;59.65
10476;BME280;26166;48.264;11.436;2022-10-26T12:42:46;96618.88;;;20.32;59.76
10476;BME280;26166;48.264;11.436;2022-10-26T12:49:11;96617.84;;;20.33;59.63
10476;BME280;26166;48.264;11.436;2022-10-26T12:53:12;96628.50;;;20.33;59.58
10476;BME280;26166;48.264;11.436;2022-10-26T12:56:07;96628.50;;;20.33;59.80
10476;BME280;26166;48.264;11.436;2022-10-26T12:59:14;96635.47;;;20.34;59.79
10476;BME280;26166;48.264;11.436;2022-10-26T13:05:31;96637.34;;;20.34;59.61
10476;BME280;26166;48.264;11.436;2022-10-26T13:08:41;96642.44;;;20.35;59.61
10476;BME280;26166;48.264;11.436;2022-10-26T13:11:45;96643.47;;;20.34;59.81
10476;BME280;26166;48.264;11.436;2022-10-26T13:14:55;96647.19;;;20.33;59.63
10476;BME280;26166;48.264;11.436;2022-10-26T13:21:06;96642.91;;;20.32;59.59
10476;BME280;26166;48.264;11.436;2022-10-26T13:24:10;96639.19;;;20.33;59.73
10476;BME280;26166;48.264;11.436;2022-10-26T13:30:17;96643.72;;;20.33;59.80
10476;BME280;26166;48.264;11.436;2022-10-26T13:33:19;96644.53;;;20.33;59.71
10476;BME280;26166;48.264;11.436;2022-10-26T13:39:43;96645.56;;;20.32;59.83
10476;BME280;26166;48.264;11.436;2022-10-26T13:42:45;96643.72;;;20.33;59.91
10476;BME280;26166;48.264;11.436;2022-10-26T13:49:00;96649.03;;;20.33;59.77
10476;BME280;26166;48.264;11.436;2022-10-26T13:52:04;96650.66;;;20.34;59.87
10476;BME280;26166;48.264;11.436;2022-10-26T13:55:12;96653.56;;;20.32;59.71
10476;BME280;26166;48.264;11.436;2022-10-26T13:58:33;96659.72;;;20.33;59.36
10476;BME280;26166;48.264;11.436;2022-10-26T14:01:36;96663.19;;;20.33;59.64
10476;BME280;26166;48.264;11.436;2022-10-26T14:04:36;96662.38;;;20.33;59.73
10476;BME280;26166;48.264;11.436;2022-10-26T14:07:41;96660.53;;;20.33;59.67
10476;BME280;26166;48.264;11.436;2022-10-26T14:10:47;96665.06;;;20.33;59.73
10476;BME280;26166;48.264;11.436;2022-10-26T14:13:51;96663.41;;;20.32;59.85
10476;BME280;26166;48.264;11.436;2022-10-26T14:16:51;96672.25;;;20.32;59.73
10476;BME280;26166;48.264;11.436;2022-10-26T14:19:52;96666.69;;;20.34;59.66
10476;BME280;26166;48.264;11.436;2022-10-26T14:22:53;96671.19;;;20.33;59.57
10476;BME280;26166;48.264;11.436;2022-10-26T14:25:53;96663.19;;;20.33;59.66
10476;BME280;26166;48.264;11.436;2022-10-26T14:28:55;96674.69;;;20.34;59.57
10476;BME280;26166;48.264;11.436;2022-10-26T14:31:56;96671.19;;;20.33;59.71
10476;BME280;26166;48.264;11.436;2022-10-26T14:34:56;96672.00;;;20.34;59.78
10476;BME280;26166;48.264;11.436;2022-10-26T14:40:59;96677.94;;;20.36;59.74
10476;BME280;26166;48.264;11.436;2022-10-26T14:44:00;96669.13;;;20.35;59.83
10476;BME280;26166;48.264;11.436;2022-10-26T14:47:01;96669.13;;;20.35;59.66
10476;BME280;26166;48.264;11.436;2022-10-26T14:50:01;96674.44;;;20.35;59.65
10476;BME280;26166;48.264;11.436;2022-10-26T14:53:03;96679.78;;;20.35;59.65
10476;BME280;26166;48.264;11.436;2022-10-26T14:56:05;96684.31;;;20.35;59.70
10476;BME280;26166;48.264;11.436;2022-10-26T15:02:22;96683.50;;;20.34;59.86
10476;BME280;26166;48.264;11.436;2022-10-26T15:05:28;96694.97;;;20.35;59.70
10476;BME280;26166;48.264;11.436;2022-10-26T15:08:43;96694.16;;;20.34;59.91
10476;BME280;26166;48.264;11.436;2022-10-26T15:11:44;96699.50;;;20.34;59.65
10476;BME280;26166;48.264;11.436;2022-10-26T15:14:44;96700.31;;;20.35;59.93
10476;BME280;26166;48.264;11.436;2022-10-26T15:17:52;96705.88;;;20.33;59.69
10476;BME280;26166;48.264;11.436;2022-10-26T15:20:52;96699.50;;;20.34;59.65
10476;BME280;26166;48.264;11.436;2022-10-26T15:23:53;96709.38;;;20.34;59.74
10476;BME280;26166;48.264;11.436;2022-10-26T15:26:55;96710.19;;;20.34;59.89
10476;BME280;26166;48.264;11.436;2022-10-26T15:33:18;96714.47;;;20.35;59.86
10476;BME280;26166;48.264;11.436;2022-10-26T15:39:21;96715.28;;;20.36;59.90
10476;BME280;26166;48.264;11.436;2022-10-26T15:42:21;96717.13;;;20.35;59.75
10476;BME280;26166;48.264;11.436;2022-10-26T15:45:22;96722.47;;;20.35;59.80
10476;BME280;26166;48.264;11.436;2022-10-26T15:48:27;96732.34;;;20.35;59.74
10476;BME280;26166;48.264;11.436;2022-10-26T15:51:29;96733.97;;;20.36;59.82
10476;BME280;26166;48.264;11.436;2022-10-26T15:54:30;96734.19;;;20.34;59.90
10476;BME280;26166;48.264;11.436;2022-10-26T15:57:30;96737.91;;;20.33;59.80
10476;BME280;26166;48.264;11.436;2022-10-26T16:00:30;96742.19;;;20.34;59.88
10476;BME280;26166;48.264;11.436;2022-10-26T16:03:30;96744.28;;;20.32;59.76
10476;BME280;26166;48.264;11.436;2022-10-26T16:06:33;96740.56;;;20.33;59.80
10476;BME280;26166;48.264;11.436;2022-10-26T16:09:33;96741.38;;;20.34;59.98
10476;BME280;26166;48.264;11.436;2022-10-26T16:12:34;96745.91;;;20.33;59.97
10476;BME280;26166;48.264;11.436;2022-10-26T16:15:35;96743.81;;;20.35;60.05
10476;BME280;26166;48.264;11.436;2022-10-26T16:18:35;96752.84;;;20.34;59.91
10476;BME280;26166;48.264;11.436;2022-10-26T16:21:36;96752.84;;;20.34;59.89
10476;BME280;26166;48.264;11.436;2022-10-26T16:24:36;96753.69;;;20.35;59.93
10476;BME280;26166;48.264;11.436;2022-10-26T16:27:36;96764.16;;;20.36;59.98
10476;BME280;26166;48.264;11.436;2022-10-26T16:30:36;96764.16;;;20.36;59.71
10476;BME280;26166;48.264;11.436;2022-10-26T16:33:36;96766.81;;;20.36;59.74
10476;BME280;26166;48.264;11.436;2022-10-26T16:36:37;96767.81;;;20.35;59.89
10476;BME280;26166;48.264;11.436;2022-10-26T16:39:37;96769.50;;;20.36;59.88
10476;BME280;26166;48.264;11.436;2022-10-26T16:42:38;96772.16;;;20.36;59.69
10476;BME280;26166;48.264;11.436;2022-10-26T16:45:42;96772.16;;;20.36;59.91
10476;BME280;26166;48.264;11.436;2022-10-26T16:48:43;96775.81;;;20.35;60.01
10476;BME280;26166;48.264;11.436;2022-10-26T16:51:44;96778.50;;;20.35;60.01
10476;BME280;26166;48.264;11.436;2022-10-26T16:54:44;96786.50;;;20.35;59.87
10476;BME280;26166;48.264;11.436;2022-10-26T16:57:44;96790.22;;;20.34;59.83
10476;BME280;26166;48.264;11.436;2022-10-26T17:00:44;96798.22;;;20.34;59.77
10476;BME280;26166;48.264;11.436;2022-10-26T17:03:45;96798.22;;;20.34;59.68
10476;BME280;26166;48.264;11.436;2022-10-26T17:06:45;96807.03;;;20.35;59.91
10476;BME280;26166;48.264;11.436;2022-10-26T17:09:45;96805.19;;;20.35;60.00
10476;BME280;26166;48.264;11.436;2022-10-26T17:12:46;96811.31;;;20.36;59.67
10476;BME280;26166;48.264;11.436;2022-10-26T17:15:46;96811.31;;;20.36;59.92
10476;BME280;26166;48.264;11.436;2022-10-26T17:18:46;96820.19;;;20.36;59.75
10476;BME280;26166;48.264;11.436;2022-10-26T17:21:47;96822.84;;;20.36;59.95
10476;BME280;26166;48.264;11.436;2022-10-26T17:24:47;96820.19;;;20.36;59.96
10476;BME280;26166;48.264;11.436;2022-10-26T17:27:47;96825.50;;;20.36;59.68
10476;BME280;26166;48.264;11.436;2022-10-26T17:30:48;96823.84;;;20.35;60.05
10476;BME280;26166;48.264;11.436;2022-10-26T17:33:48;96827.34;;;20.36;59.91
10476;BME280;26166;48.264;11.436;2022-10-26T17:36:51;96838.84;;;20.36;59.71
10476;BME280;26166;48.264;11.436;2022-10-26T17:39:51;96841.53;;;20.36;59.75
10476;BME280;26166;48.264;11.436;2022-10-26T17:42:51;96847.88;;;20.35;59.88
10476;BME280;26166;48.264;11.436;2022-10-26T17:45:51;96856.91;;;20.34;60.03
10476;BME280;26166;48.264;11.436;2022-10-26T17:48:57;96862.00;;;20.36;59.92
10476;BME280;26166;48.264;11.436;2022-10-26T17:51:57;96858.53;;;20.35;59.71
10476;BME280;26166;48.264;11.436;2022-10-26T17:54:57;96866.53;;;20.35;59.71
10476;BME280;26166;48.264;11.436;2022-10-26T17:57:58;96871.88;;;20.35;59.88
10476;BME280;26166;48.264;11.436;2022-10-26T18:01:02;96871.06;;;20.35;59.93
10476;BME280;26166;48.264;11.436;2022-10-26T18:04:03;96876.19;;;20.36;60.05
10476;BME280;26166;48.264;11.436;2022-10-26T18:07:03;96876.19;;;20.36;59.81